Strona główna
METAR-TAF:

METAR-TAF

Lotnisko :

Albert, Francja

Szerokość geograficzna: 49-58-21N, Długość geograficzna: 002-41-29E, wysokość: 111 m

Aktualna obserwacja pogody

Raport powstał 22 minut temu, godzina 05:30 UTC
Wiatr 2 kt od wschodnio-północny wschód
Temperatura 7°C
Wilgotność 93%
Ciśnienie 1023 hPa
Widzialność: 8000 m
Mało chmury na wysokości 1400 ft
Przerywane chmury na wysokości 24000 ft

METAR: LFAQ 230530Z AUTO 06002KT 8000 FEW014 BKN240 07/06 Q1023 NOSIG

czas: 07:52 (05:52 UTC)

Prognoza

Raport powstał 52 minut temu, godzina 05:00 UTC
Prognoza ważna od 23 godzina 06 UTC do 23 godzina 15 UTC
Wiatr 2 kt z kierunków zmiennych
Widzialność 10 km lub więcej
Brak chmur poniżej 1500 m i brak chmur cumulonimbus
Przejściowo
od 23 godzina 06 UTC do 23 godzina 07 UTC
Widzialność: 5000 m
zamglenie

TAF: LFAQ 230500Z 2306/2315 VRB02KT CAVOK TEMPO 2306/2307 5000 BR

Obserwacja i prognoza pogody dla ponad 4000 lotnisk (raport METAR i TAF).

Dostępne stacje oznaczono żółtymi i czerwonymi punktami na mapie.

Najedź kursorem aby zobaczyć nazwę stacji.

Kliknij aby zobaczyć obserwacje i prognozy pogody.

Aby zmienić mapę: kliknij na zielony przycisk z czarnym krzyżykiem, aby powiększyć; na zielony przycisk z myślnikiem, aby pomniejszyć; na zielone strzałki, aby przejść do map sąsiednich.


METAR-TAF: